createdAt,value
2023-03-05T00:01:07.422Z,6.88
2023-03-05T00:03:35.797Z,7.22
2023-03-05T00:06:04.773Z,7.60
2023-03-05T00:08:35.192Z,7.32
2023-03-05T00:11:05.533Z,6.10
2023-03-05T00:13:34.475Z,7.50
2023-03-05T00:16:04.324Z,6.18
2023-03-05T00:18:32.655Z,6.82
2023-03-05T00:21:01.200Z,6.47
2023-03-05T00:23:29.657Z,6.30
2023-03-05T00:26:02.591Z,6.28
2023-03-05T00:28:31.004Z,6.32
2023-03-05T00:31:02.188Z,6.30
2023-03-05T00:33:30.559Z,6.22
2023-03-05T00:36:01.860Z,6.95
2023-03-05T00:38:30.189Z,6.60
2023-03-05T00:41:00.164Z,6.00
2023-03-05T00:43:28.614Z,6.63
2023-03-05T00:45:57.221Z,7.18
2023-03-05T00:48:25.719Z,5.40
2023-03-05T00:50:54.557Z,5.32
2023-03-05T00:53:23.312Z,4.95
2023-03-05T00:55:51.798Z,4.18
2023-03-05T00:58:21.785Z,3.88
2023-03-05T01:00:51.231Z,4.20
2023-03-05T01:03:19.715Z,3.67
2023-03-05T01:05:48.236Z,3.85
2023-03-05T01:08:16.999Z,3.90
2023-03-05T01:10:45.662Z,3.53
2023-03-05T01:13:13.926Z,4.00
2023-03-05T01:15:43.990Z,3.58
2023-03-05T01:18:12.401Z,2.95
2023-03-05T01:20:41.026Z,3.17
2023-03-05T01:23:09.477Z,3.42
2023-03-05T01:25:38.328Z,3.22
2023-03-05T01:28:07.176Z,2.85
2023-03-05T01:30:36.182Z,3.70
2023-03-05T01:33:05.904Z,2.95
2023-03-05T01:35:34.353Z,2.88
2023-03-05T01:38:02.740Z,3.25
2023-03-05T01:40:32.610Z,3.13
2023-03-05T01:43:02.944Z,3.55
2023-03-05T01:45:32.557Z,3.17
2023-03-05T01:48:00.789Z,3.42
2023-03-05T01:50:30.632Z,3.70
2023-03-05T01:53:01.673Z,3.50
2023-03-05T01:58:02.144Z,3.75
2023-03-05T02:00:33.759Z,3.72
2023-03-05T02:05:34.577Z,3.65
2023-03-05T02:08:05.130Z,5.47
2023-03-05T02:10:36.025Z,7.93
2023-03-05T02:13:07.507Z,7.32
2023-03-05T02:15:36.021Z,6.43
2023-03-05T02:18:04.208Z,6.30
2023-03-05T02:20:45.643Z,5.40
2023-03-05T02:23:15.845Z,6.13
2023-03-05T02:25:44.378Z,5.00
2023-03-05T02:28:16.333Z,4.15
2023-03-05T02:30:44.897Z,3.97
2023-03-05T02:33:15.215Z,4.35
2023-03-05T02:35:44.644Z,5.75
2023-03-05T02:38:13.009Z,6.43
2023-03-05T02:40:43.037Z,5.43
2023-03-05T02:43:11.772Z,5.43
2023-03-05T02:45:40.358Z,4.75
2023-03-05T02:48:08.694Z,4.22
2023-03-05T02:50:39.820Z,4.68
2023-03-05T02:53:08.018Z,4.32
2023-03-05T02:55:36.731Z,4.43
2023-03-05T02:58:06.280Z,4.35
2023-03-05T03:00:34.786Z,5.00
2023-03-05T03:03:02.936Z,4.88
2023-03-05T03:05:31.511Z,5.47
2023-03-05T03:08:00.141Z,5.35
2023-03-05T03:10:28.681Z,4.63
2023-03-05T03:12:56.851Z,4.70
2023-03-05T03:15:26.906Z,5.00
2023-03-05T03:17:55.740Z,5.18
2023-03-05T03:20:24.850Z,5.25
2023-03-05T03:22:53.768Z,6.93
2023-03-05T03:25:24.147Z,8.15
2023-03-05T03:27:52.350Z,7.80
2023-03-05T03:30:21.291Z,8.98
2023-03-05T03:32:52.146Z,7.80
2023-03-05T03:35:20.740Z,7.80
2023-03-05T03:37:49.186Z,9.18
2023-03-05T03:40:18.200Z,8.68
2023-03-05T03:42:46.478Z,9.57
2023-03-05T03:45:15.169Z,9.93
2023-03-05T03:47:43.459Z,9.30
2023-03-05T03:50:13.972Z,10.15
2023-03-05T03:52:42.187Z,8.95
2023-03-05T03:55:12.029Z,11.00
2023-03-05T03:57:40.274Z,10.60
2023-03-05T04:00:10.446Z,10.75
2023-03-05T04:02:39.046Z,10.52
2023-03-05T04:05:08.872Z,10.13
2023-03-05T04:07:38.460Z,10.48
2023-03-05T04:10:07.608Z,10.45
2023-03-05T04:12:35.895Z,9.60
2023-03-05T04:15:05.915Z,10.40
2023-03-05T04:17:34.424Z,10.20
2023-03-05T04:20:05.611Z,8.98
2023-03-05T04:22:33.857Z,9.95
2023-03-05T04:25:06.603Z,9.43
2023-03-05T04:27:34.979Z,8.82
2023-03-05T04:30:03.506Z,8.73
2023-03-05T04:32:33.316Z,9.15
2023-03-05T04:35:01.901Z,9.30
2023-03-05T04:37:30.154Z,8.98
2023-03-05T04:39:58.712Z,8.75
2023-03-05T04:42:28.316Z,8.55
2023-03-05T04:44:56.922Z,8.82
2023-03-05T04:47:25.197Z,7.32
2023-03-05T04:49:56.297Z,6.28
2023-03-05T04:52:24.478Z,6.80
2023-03-05T04:54:54.452Z,5.95
2023-03-05T04:57:23.823Z,5.95
2023-03-05T04:59:54.492Z,6.22
2023-03-05T05:02:22.661Z,6.00
2023-03-05T05:04:54.073Z,7.65
2023-03-05T05:09:50.935Z,6.97
2023-03-05T05:12:19.088Z,6.88
2023-03-05T05:14:47.548Z,6.32
2023-03-05T05:17:17.302Z,5.93
2023-03-05T05:19:45.754Z,5.82
2023-03-05T05:22:13.949Z,5.68
2023-03-05T05:24:42.559Z,7.65
2023-03-05T05:27:10.997Z,6.88
2023-03-05T05:29:39.599Z,6.10
2023-03-05T05:32:08.133Z,5.50
2023-03-05T05:34:38.228Z,5.70
2023-03-05T05:37:06.668Z,5.75
2023-03-05T05:39:35.106Z,5.40
2023-03-05T05:42:03.387Z,5.82
2023-03-05T05:44:31.905Z,5.75
2023-03-05T05:47:00.082Z,5.00
2023-03-05T05:49:28.616Z,5.30
2023-03-05T05:51:59.341Z,4.32
2023-03-05T05:54:27.961Z,4.53
2023-03-05T05:56:56.305Z,4.40
2023-03-05T05:59:24.875Z,4.93
2023-03-05T06:01:53.206Z,4.45
2023-03-05T06:04:21.987Z,4.57
2023-03-05T06:06:50.350Z,4.70
2023-03-05T06:09:20.171Z,4.95
2023-03-05T06:11:48.498Z,5.03
2023-03-05T06:14:17.283Z,5.95
2023-03-05T06:16:45.709Z,5.47
2023-03-05T06:19:14.789Z,5.28
2023-03-05T06:21:43.645Z,6.03
2023-03-05T06:24:12.416Z,6.50
2023-03-05T06:26:41.976Z,7.05
2023-03-05T06:29:10.718Z,6.60
2023-03-05T06:31:40.460Z,7.57
2023-03-05T06:34:08.986Z,10.88
2023-03-05T06:36:37.302Z,8.73
2023-03-05T06:39:05.923Z,6.90
2023-03-05T06:41:34.401Z,8.45
2023-03-05T06:44:04.870Z,7.97
2023-03-05T06:46:36.274Z,9.00
2023-03-05T06:49:05.412Z,8.32
2023-03-05T06:51:35.808Z,8.50
2023-03-05T06:54:06.815Z,7.95
2023-03-05T06:56:37.888Z,6.97
2023-03-05T07:01:36.102Z,6.07
2023-03-05T07:04:05.005Z,5.68
2023-03-05T07:06:34.528Z,5.35
2023-03-05T07:09:04.136Z,4.60
2023-03-05T07:11:35.299Z,4.40
2023-03-05T07:14:04.304Z,4.30
2023-03-05T07:16:35.247Z,3.97
2023-03-05T07:21:36.068Z,4.60
2023-03-05T07:24:06.883Z,5.85
2023-03-05T07:26:35.186Z,6.28
2023-03-05T07:29:03.739Z,6.10
2023-03-05T07:31:33.832Z,6.20
2023-03-05T07:34:03.795Z,6.23
2023-03-05T07:36:32.193Z,5.53
2023-03-05T07:39:00.653Z,6.15
2023-03-05T07:41:28.917Z,7.13
2023-03-05T07:43:57.675Z,7.43
2023-03-05T07:46:29.406Z,7.05
2023-03-05T07:48:59.888Z,6.70
2023-03-05T07:51:29.164Z,6.95
2023-03-05T07:53:59.106Z,7.88
2023-03-05T07:56:31.884Z,8.05
2023-03-05T07:59:00.833Z,7.90
2023-03-05T08:01:29.039Z,8.23
2023-03-05T08:03:59.056Z,7.88
2023-03-05T08:06:27.358Z,6.90
2023-03-05T08:08:55.750Z,7.97
2023-03-05T08:11:24.198Z,9.13
2023-03-05T08:13:52.412Z,9.68
2023-03-05T08:16:22.396Z,9.02
2023-03-05T08:18:50.684Z,10.80
2023-03-05T08:21:22.918Z,12.73
2023-03-05T08:23:51.444Z,12.93
2023-03-05T08:26:22.553Z,13.80
2023-03-05T08:28:51.016Z,13.85
2023-03-05T08:31:22.304Z,16.05
2023-03-05T08:33:50.765Z,20.08
2023-03-05T08:36:20.817Z,25.85
2023-03-05T08:38:49.091Z,18.65
2023-03-05T08:41:22.483Z,18.85
2023-03-05T08:43:50.685Z,18.23
2023-03-05T08:46:19.238Z,17.48
2023-03-05T08:48:47.469Z,23.05
2023-03-05T08:51:17.647Z,16.75
2023-03-05T08:53:47.873Z,14.68
2023-03-05T08:56:16.582Z,14.20
2023-03-05T08:58:46.280Z,22.90
2023-03-05T09:01:15.300Z,13.60
2023-03-05T09:03:43.617Z,12.05
2023-03-05T09:06:13.519Z,13.38
2023-03-05T09:08:41.914Z,11.38
2023-03-05T09:11:13.499Z,12.00
2023-03-05T09:16:12.979Z,14.55
2023-03-05T09:18:41.439Z,12.68
2023-03-05T09:21:11.908Z,13.68
2023-03-05T09:23:40.494Z,12.80
2023-03-05T09:26:13.308Z,11.75
2023-03-05T09:28:41.907Z,10.68
2023-03-05T09:31:11.366Z,11.32
2023-03-05T09:33:40.352Z,12.52
2023-03-05T09:36:19.052Z,12.48
2023-03-05T09:38:47.333Z,13.20
2023-03-05T09:41:23.300Z,14.00
2023-03-05T09:43:58.136Z,13.55
2023-03-05T09:46:35.575Z,13.63
2023-03-05T09:49:12.780Z,15.15
2023-03-05T09:51:43.123Z,14.48
2023-03-05T09:54:15.330Z,22.45
2023-03-05T09:56:48.910Z,17.45
2023-03-05T09:59:23.762Z,25.95
2023-03-05T10:01:54.310Z,17.92
2023-03-05T10:04:25.836Z,16.38
2023-03-05T10:06:57.237Z,12.70
2023-03-05T10:09:38.009Z,12.68
2023-03-05T10:12:12.076Z,20.20
2023-03-05T10:14:41.894Z,24.13
2023-03-05T10:17:36.491Z,18.77
2023-03-05T10:20:37.284Z,17.90
2023-03-05T10:23:15.680Z,16.83
2023-03-05T10:25:53.715Z,17.42
2023-03-05T10:28:28.913Z,14.52
2023-03-05T10:31:11.234Z,17.25
2023-03-05T10:33:45.261Z,22.02
2023-03-05T10:36:32.292Z,16.08
2023-03-05T10:39:36.470Z,17.35
2023-03-05T10:42:09.814Z,19.88
2023-03-05T10:44:43.564Z,16.27
2023-03-05T10:47:17.421Z,14.15
2023-03-05T10:49:51.341Z,12.85
2023-03-05T10:52:21.459Z,16.05
2023-03-05T10:54:50.917Z,11.20
2023-03-05T10:57:21.487Z,25.05
2023-03-05T10:59:53.696Z,27.42
2023-03-05T11:02:23.371Z,16.40
2023-03-05T11:04:53.638Z,11.52
2023-03-05T11:07:37.514Z,17.17
2023-03-05T11:10:15.545Z,36.83
2023-03-05T11:12:44.389Z,27.50
2023-03-05T11:15:29.120Z,14.23
2023-03-05T11:18:19.326Z,12.82
2023-03-05T11:20:48.307Z,16.60
2023-03-05T11:23:17.875Z,13.43
2023-03-05T11:25:55.684Z,10.77
2023-03-05T11:28:32.908Z,12.75
2023-03-05T11:31:08.725Z,9.05
2023-03-05T11:33:38.186Z,6.55
2023-03-05T11:36:24.870Z,8.60
2023-03-05T11:38:57.690Z,8.00
2023-03-05T11:41:29.970Z,8.10
2023-03-05T11:43:58.560Z,6.45
2023-03-05T11:46:29.198Z,6.38
2023-03-05T11:48:57.652Z,6.75
2023-03-05T11:51:28.339Z,10.70
2023-03-05T11:54:00.924Z,8.20
2023-03-05T11:56:32.605Z,9.05
2023-03-05T12:01:34.452Z,5.65
2023-03-05T12:04:03.033Z,5.30
2023-03-05T12:06:36.834Z,6.70
2023-03-05T12:09:09.268Z,5.90
2023-03-05T12:11:38.216Z,4.80
2023-03-05T12:14:12.205Z,5.95
2023-03-05T12:16:43.885Z,6.82
2023-03-05T12:19:35.785Z,6.10
2023-03-05T12:22:05.205Z,12.95
2023-03-05T12:24:39.565Z,10.30
2023-03-05T12:27:16.651Z,7.03
2023-03-05T12:29:51.926Z,5.15
2023-03-05T12:32:54.167Z,4.30
2023-03-05T12:35:29.643Z,4.57
2023-03-05T12:38:01.800Z,5.32
2023-03-05T12:40:35.088Z,6.38
2023-03-05T12:43:04.000Z,6.45
2023-03-05T12:45:37.759Z,6.32
2023-03-05T12:48:54.799Z,4.60
2023-03-05T12:51:33.174Z,3.45
2023-03-05T12:54:31.340Z,4.32
2023-03-05T12:57:01.167Z,6.07
2023-03-05T12:59:36.488Z,8.73
2023-03-05T13:02:06.224Z,3.95
2023-03-05T13:04:38.337Z,3.50
2023-03-05T13:07:15.925Z,4.05
2023-03-05T13:09:53.585Z,3.30
2023-03-05T13:12:22.096Z,7.10
2023-03-05T13:14:58.817Z,3.20
2023-03-05T13:17:39.389Z,9.85
2023-03-05T13:20:35.089Z,3.30
2023-03-05T13:23:16.189Z,3.65
2023-03-05T13:25:45.086Z,9.60
2023-03-05T13:28:15.455Z,3.88
2023-03-05T13:30:46.735Z,5.72
2023-03-05T13:33:19.113Z,5.20
2023-03-05T13:35:48.408Z,5.82
2023-03-05T13:38:24.868Z,5.68
2023-03-05T13:41:07.709Z,4.75
2023-03-05T13:43:36.161Z,3.55
2023-03-05T13:46:04.884Z,4.15
2023-03-05T13:48:33.090Z,3.78
2023-03-05T13:51:01.608Z,5.05
2023-03-05T13:53:32.287Z,4.10
2023-03-05T13:56:04.107Z,4.38
2023-03-05T13:58:48.606Z,4.38
2023-03-05T14:01:30.022Z,4.95
2023-03-05T14:04:00.832Z,4.05
2023-03-05T14:06:31.167Z,8.00
2023-03-05T14:09:07.702Z,6.82
2023-03-05T14:11:37.100Z,5.00
2023-03-05T14:14:09.023Z,4.22
2023-03-05T14:16:38.052Z,3.40
2023-03-05T14:19:07.345Z,5.07
2023-03-05T14:21:48.412Z,14.85
2023-03-05T14:24:22.851Z,6.00
2023-03-05T14:26:52.893Z,6.95
2023-03-05T14:29:24.288Z,5.22
2023-03-05T14:31:54.678Z,5.43
2023-03-05T14:34:27.352Z,4.30
2023-03-05T14:36:58.453Z,4.57
2023-03-05T14:39:43.947Z,5.35
2023-03-05T14:42:27.358Z,5.43
2023-03-05T14:44:57.095Z,6.93
2023-03-05T14:47:25.894Z,5.03
2023-03-05T14:49:54.625Z,4.85
2023-03-05T14:52:24.829Z,5.32
2023-03-05T14:54:55.313Z,6.03
2023-03-05T14:57:26.713Z,5.97
2023-03-05T14:59:55.761Z,7.43
2023-03-05T15:02:25.855Z,6.75
2023-03-05T15:04:54.492Z,9.15
2023-03-05T15:07:27.379Z,5.78
2023-03-05T15:09:57.354Z,6.95
2023-03-05T15:12:25.949Z,8.25
2023-03-05T15:14:55.422Z,7.30
2023-03-05T15:17:26.568Z,5.57
2023-03-05T15:19:54.962Z,8.52
2023-03-05T15:22:23.554Z,4.82
2023-03-05T15:24:51.785Z,5.55
2023-03-05T15:27:21.742Z,3.58
2023-03-05T15:29:49.911Z,5.10
2023-03-05T15:32:18.483Z,5.65
2023-03-05T15:34:46.871Z,3.63
2023-03-05T15:37:15.409Z,3.72
2023-03-05T15:39:43.914Z,4.10
2023-03-05T15:42:12.548Z,3.80
2023-03-05T15:44:42.556Z,4.20
2023-03-05T15:47:11.464Z,3.15
2023-03-05T15:49:39.864Z,5.88
2023-03-05T15:52:08.526Z,3.40
2023-03-05T15:54:36.955Z,4.68
2023-03-05T15:57:10.504Z,4.85
2023-03-05T15:59:38.876Z,4.72
2023-03-05T16:02:08.934Z,4.95
2023-03-05T16:04:37.235Z,5.30
2023-03-05T16:07:06.416Z,4.30
2023-03-05T16:09:37.632Z,5.07
2023-03-05T16:12:09.156Z,4.63
2023-03-05T16:14:39.528Z,4.78
2023-03-05T16:17:09.799Z,4.10
2023-03-05T16:19:41.904Z,5.03
2023-03-05T16:22:10.577Z,5.38
2023-03-05T16:24:38.940Z,5.13
2023-03-05T16:27:08.009Z,6.13
2023-03-05T16:29:36.340Z,5.38
2023-03-05T16:32:05.843Z,5.90
2023-03-05T16:34:35.665Z,6.90
2023-03-05T16:37:06.996Z,6.72
2023-03-05T16:39:35.331Z,6.97
2023-03-05T16:42:05.030Z,9.80
2023-03-05T16:44:33.556Z,12.00
2023-03-05T16:47:02.573Z,9.20
2023-03-05T16:49:31.382Z,7.55
2023-03-05T16:52:06.187Z,7.93
2023-03-05T16:54:44.813Z,8.75
2023-03-05T16:57:13.838Z,6.38
2023-03-05T16:59:43.749Z,7.10
2023-03-05T17:02:15.292Z,7.27
2023-03-05T17:04:43.939Z,6.25
2023-03-05T17:07:14.112Z,6.93
2023-03-05T17:09:42.603Z,5.93
2023-03-05T17:12:11.548Z,6.70
2023-03-05T17:14:40.115Z,6.20
2023-03-05T17:17:08.779Z,6.65
2023-03-05T17:19:37.140Z,7.80
2023-03-05T17:22:06.071Z,9.07
2023-03-05T17:24:36.500Z,9.95
2023-03-05T17:27:05.218Z,10.85
2023-03-05T17:29:34.420Z,11.85
2023-03-05T17:32:03.316Z,9.23
2023-03-05T17:34:36.712Z,9.38
2023-03-05T17:37:06.796Z,10.95
2023-03-05T17:39:36.447Z,12.75
2023-03-05T17:42:05.122Z,12.95
2023-03-05T17:44:33.575Z,12.48
2023-03-05T17:47:02.157Z,11.73
2023-03-05T17:49:30.762Z,13.27
2023-03-05T17:51:59.345Z,11.55
2023-03-05T17:54:27.672Z,9.40
2023-03-05T17:56:58.083Z,9.75
2023-03-05T17:59:26.864Z,11.65
2023-03-05T18:01:55.491Z,15.32
2023-03-05T18:04:23.930Z,13.88
2023-03-05T18:06:52.525Z,12.43
2023-03-05T18:09:21.273Z,9.75
2023-03-05T18:11:50.273Z,8.13
2023-03-05T18:14:19.977Z,8.95
2023-03-05T18:16:48.858Z,10.02
2023-03-05T18:19:18.828Z,11.25
2023-03-05T18:21:47.746Z,10.52
2023-03-05T18:24:16.117Z,12.35
2023-03-05T18:26:45.635Z,12.52
2023-03-05T18:29:13.967Z,11.88
2023-03-05T18:31:43.983Z,12.77
2023-03-05T18:34:12.403Z,10.85
2023-03-05T18:36:40.947Z,12.38
2023-03-05T18:39:10.911Z,10.43
2023-03-05T18:41:39.824Z,11.82
2023-03-05T18:44:09.068Z,10.40
2023-03-05T18:46:37.568Z,13.45
2023-03-05T18:49:07.463Z,13.35
2023-03-05T18:51:36.441Z,11.95
2023-03-05T18:54:05.069Z,12.10
2023-03-05T18:56:33.633Z,11.48
2023-03-05T18:59:02.095Z,11.23
2023-03-05T19:01:30.695Z,12.20
2023-03-05T19:03:59.049Z,13.30
2023-03-05T19:06:29.095Z,12.40
2023-03-05T19:08:59.488Z,13.60
2023-03-05T19:11:28.177Z,13.73
2023-03-05T19:13:57.139Z,14.90
2023-03-05T19:16:29.505Z,13.77
2023-03-05T19:19:06.442Z,13.73
2023-03-05T19:21:36.502Z,11.57
2023-03-05T19:24:05.013Z,11.15
2023-03-05T19:26:33.856Z,12.10
2023-03-05T19:29:03.810Z,12.85
2023-03-05T19:31:32.560Z,13.70
2023-03-05T19:34:01.376Z,11.20
2023-03-05T19:36:30.402Z,12.23
2023-03-05T19:39:00.351Z,12.38
2023-03-05T19:41:29.558Z,15.00
2023-03-05T19:43:57.899Z,16.70
2023-03-05T19:46:26.690Z,21.13
2023-03-05T19:48:55.320Z,17.67
2023-03-05T19:51:25.714Z,15.80
2023-03-05T19:53:54.214Z,11.15
2023-03-05T19:56:24.216Z,12.73
2023-03-05T19:58:52.631Z,11.85
2023-03-05T20:01:23.368Z,12.27
2023-03-05T20:03:53.054Z,12.73
2023-03-05T20:06:22.288Z,12.15
2023-03-05T20:08:50.916Z,11.85
2023-03-05T20:11:20.768Z,11.75
2023-03-05T20:13:50.856Z,12.18
2023-03-05T20:16:21.226Z,11.13
2023-03-05T20:18:52.894Z,11.60
2023-03-05T20:21:23.365Z,10.27
2023-03-05T20:23:52.157Z,10.93
2023-03-05T20:26:21.155Z,11.18
2023-03-05T20:28:51.294Z,13.15
2023-03-05T20:31:20.849Z,12.57
2023-03-05T20:33:49.440Z,11.30
2023-03-05T20:36:18.388Z,11.13
2023-03-05T20:38:48.037Z,11.60
2023-03-05T20:41:18.824Z,11.52
2023-03-05T20:43:49.144Z,10.95
2023-03-05T20:46:20.879Z,10.63
2023-03-05T20:51:22.670Z,12.80
2023-03-05T20:53:51.264Z,14.13
2023-03-05T20:56:19.934Z,12.85
2023-03-05T20:58:48.408Z,10.80
2023-03-05T21:01:18.503Z,9.85
2023-03-05T21:03:46.962Z,10.10
2023-03-05T21:06:15.635Z,9.02
2023-03-05T21:08:44.847Z,7.88
2023-03-05T21:11:13.979Z,9.30
2023-03-05T21:13:42.177Z,9.40
2023-03-05T21:16:12.420Z,9.32
2023-03-05T21:18:42.084Z,28.75
2023-03-05T21:21:10.662Z,34.95
2023-03-05T21:23:39.086Z,68.82
2023-03-05T21:26:08.045Z,26.33
2023-03-05T21:28:36.467Z,21.58
2023-03-05T21:31:08.943Z,30.98
2023-03-05T21:33:37.442Z,31.30
2023-03-05T21:36:08.212Z,22.90
2023-03-05T21:38:36.694Z,16.90
2023-03-05T21:41:05.934Z,15.82
2023-03-05T21:43:34.514Z,14.60
2023-03-05T21:46:03.701Z,15.32
2023-03-05T21:48:32.676Z,14.88
2023-03-05T21:51:01.504Z,16.23
2023-03-05T21:53:32.293Z,17.92
2023-03-05T21:56:11.072Z,17.52
2023-03-05T21:58:39.324Z,17.58
2023-03-05T22:01:07.875Z,17.25
2023-03-05T22:03:36.185Z,16.80
2023-03-05T22:06:05.074Z,18.60
2023-03-05T22:08:34.774Z,18.50
2023-03-05T22:11:03.600Z,17.77
2023-03-05T22:13:32.174Z,18.08
2023-03-05T22:16:00.773Z,19.63
2023-03-05T22:18:30.229Z,17.27
2023-03-05T22:21:00.035Z,16.92
2023-03-05T22:23:31.492Z,16.30
2023-03-05T22:26:03.514Z,16.48
2023-03-05T22:28:32.754Z,17.48
2023-03-05T22:31:01.530Z,16.90
2023-03-05T22:33:29.929Z,16.88
2023-03-05T22:35:59.334Z,14.93
2023-03-05T22:38:27.641Z,16.85
2023-03-05T22:40:56.294Z,17.52
2023-03-05T22:43:26.065Z,15.80
2023-03-05T22:45:54.891Z,13.68
2023-03-05T22:48:23.171Z,12.63
2023-03-05T22:50:56.411Z,12.13
2023-03-05T22:53:24.690Z,9.93
2023-03-05T22:55:53.360Z,8.90
2023-03-05T22:58:21.631Z,8.90
2023-03-05T23:00:51.462Z,7.72
2023-03-05T23:03:19.807Z,8.07
2023-03-05T23:05:48.306Z,8.95
2023-03-05T23:08:16.630Z,10.80
2023-03-05T23:10:45.175Z,10.32
2023-03-05T23:13:13.376Z,11.13
2023-03-05T23:15:41.946Z,10.07
2023-03-05T23:18:14.283Z,11.15
2023-03-05T23:20:43.311Z,10.13
2023-03-05T23:23:12.547Z,9.88
2023-03-05T23:25:41.194Z,10.10
2023-03-05T23:28:09.384Z,11.60
2023-03-05T23:30:39.673Z,10.65
2023-03-05T23:33:09.729Z,11.45
2023-03-05T23:35:41.207Z,12.35
2023-03-05T23:38:12.303Z,13.02
2023-03-05T23:40:43.201Z,12.02
2023-03-05T23:43:11.774Z,12.80
2023-03-05T23:45:41.970Z,20.15
2023-03-05T23:48:10.455Z,15.60
2023-03-05T23:50:42.047Z,14.32
2023-03-05T23:55:41.850Z,14.23
2023-03-05T23:58:10.550Z,13.35
